createdAt,value
2024-02-14T00:00:35.565Z,1
2024-02-14T00:02:19.254Z,1
2024-02-14T00:04:02.976Z,1
2024-02-14T00:05:46.783Z,1
2024-02-14T00:07:30.374Z,1
2024-02-14T00:09:14.137Z,1
2024-02-14T00:10:57.784Z,1
2024-02-14T00:12:41.488Z,2
2024-02-14T00:14:25.172Z,1
2024-02-14T00:16:08.885Z,1
2024-02-14T00:17:52.584Z,1
2024-02-14T00:19:36.279Z,1
2024-02-14T00:21:19.985Z,1
2024-02-14T00:23:03.684Z,1
2024-02-14T00:24:47.391Z,2
2024-02-14T00:26:31.096Z,1
2024-02-14T00:28:14.786Z,0
2024-02-14T00:29:58.481Z,1
2024-02-14T00:31:42.193Z,2
2024-02-14T00:33:25.895Z,1
2024-02-14T00:35:09.613Z,1
2024-02-14T00:36:53.316Z,1
2024-02-14T00:38:37.005Z,2
2024-02-14T00:40:20.709Z,2
2024-02-14T00:48:59.215Z,1
2024-02-14T00:50:43.008Z,1
2024-02-14T00:52:26.622Z,1
2024-02-14T00:54:10.333Z,1
2024-02-14T00:55:54.027Z,1
2024-02-14T00:57:37.789Z,1
2024-02-14T00:59:21.441Z,1
2024-02-14T01:01:05.125Z,1
2024-02-14T01:02:48.831Z,1
2024-02-14T01:04:32.538Z,1
2024-02-14T01:06:16.229Z,1
2024-02-14T01:07:59.961Z,1
2024-02-14T01:09:43.640Z,0
2024-02-14T01:11:27.337Z,1
2024-02-14T01:13:11.034Z,1
2024-02-14T01:14:54.781Z,2
2024-02-14T01:16:38.455Z,2
2024-02-14T01:18:22.140Z,1
2024-02-14T01:20:05.840Z,1
2024-02-14T01:21:49.550Z,1
2024-02-14T01:23:33.252Z,1
2024-02-14T01:25:16.948Z,1
2024-02-14T01:27:00.656Z,1
2024-02-14T01:28:44.360Z,1
2024-02-14T01:30:28.057Z,1
2024-02-14T01:32:11.759Z,2
2024-02-14T01:33:55.464Z,1
2024-02-14T01:35:39.170Z,1
2024-02-14T01:37:22.874Z,1
2024-02-14T01:39:06.556Z,2
2024-02-14T01:40:50.273Z,1
2024-02-14T01:42:33.976Z,2
2024-02-14T01:44:17.672Z,1
2024-02-14T01:46:01.365Z,2
2024-02-14T01:47:45.078Z,1
2024-02-14T01:49:28.771Z,2
2024-02-14T01:51:12.479Z,1
2024-02-14T01:52:56.177Z,1
2024-02-14T01:54:39.887Z,1
2024-02-14T01:56:23.646Z,1
2024-02-14T01:58:07.289Z,2
2024-02-14T01:59:50.979Z,1
2024-02-14T02:01:34.697Z,1
2024-02-14T02:03:18.386Z,1
2024-02-14T02:05:02.099Z,1
2024-02-14T02:06:45.809Z,1
2024-02-14T02:08:29.593Z,1
2024-02-14T02:10:13.197Z,1
2024-02-14T02:11:56.902Z,1
2024-02-14T02:13:40.601Z,1
2024-02-14T02:15:24.313Z,1
2024-02-14T02:17:08.002Z,0
2024-02-14T02:18:51.740Z,1
2024-02-14T02:20:35.408Z,1
2024-02-14T02:22:19.117Z,1
2024-02-14T02:24:02.811Z,1
2024-02-14T02:25:46.516Z,1
2024-02-14T02:27:30.220Z,1
2024-02-14T02:29:13.920Z,1
2024-02-14T02:30:57.620Z,0
2024-02-14T02:32:41.324Z,2
2024-02-14T02:34:25.027Z,1
2024-02-14T02:36:08.728Z,2
2024-02-14T02:37:52.432Z,1
2024-02-14T02:39:36.125Z,1
2024-02-14T02:41:19.830Z,0
2024-02-14T02:43:03.529Z,1
2024-02-14T02:44:47.228Z,1
2024-02-14T02:46:30.935Z,1
2024-02-14T02:48:14.635Z,1
2024-02-14T02:49:58.342Z,1
2024-02-14T02:51:42.038Z,1
2024-02-14T02:53:25.731Z,1
2024-02-14T02:55:09.442Z,2
2024-02-14T02:56:53.167Z,1
2024-02-14T02:58:36.843Z,1
2024-02-14T03:00:20.558Z,1
2024-02-14T03:02:04.253Z,1
2024-02-14T03:03:47.956Z,1
2024-02-14T03:05:31.661Z,1
2024-02-14T03:07:15.358Z,1
2024-02-14T03:08:59.063Z,1
2024-02-14T03:10:42.891Z,1
2024-02-14T03:12:26.455Z,1
2024-02-14T03:14:10.164Z,1
2024-02-14T03:15:53.889Z,2
2024-02-14T03:17:37.562Z,1
2024-02-14T03:19:21.268Z,1
2024-02-14T03:21:04.964Z,2
2024-02-14T03:22:48.681Z,2
2024-02-14T03:24:32.385Z,2
2024-02-14T03:26:16.083Z,1
2024-02-14T03:27:59.797Z,1
2024-02-14T03:29:43.487Z,1
2024-02-14T03:31:27.192Z,1
2024-02-14T03:33:10.891Z,2
2024-02-14T03:34:54.624Z,1
2024-02-14T03:36:38.308Z,1
2024-02-14T03:38:21.998Z,1
2024-02-14T03:40:05.692Z,2
2024-02-14T03:41:49.399Z,1
2024-02-14T03:43:33.125Z,1
2024-02-14T03:45:16.809Z,1
2024-02-14T03:47:00.508Z,1
2024-02-14T03:48:44.202Z,1
2024-02-14T03:50:27.924Z,1
2024-02-14T03:52:11.621Z,0
2024-02-14T03:53:55.319Z,3
2024-02-14T03:55:39.025Z,1
2024-02-14T03:57:22.728Z,1
2024-02-14T03:59:06.422Z,1
2024-02-14T04:00:50.123Z,1
2024-02-14T04:02:33.831Z,1
2024-02-14T04:04:17.537Z,1
2024-02-14T04:06:01.240Z,1
2024-02-14T04:07:44.929Z,1
2024-02-14T04:09:28.637Z,1
2024-02-14T04:11:12.345Z,2
2024-02-14T04:12:56.037Z,1
2024-02-14T04:14:39.742Z,1
2024-02-14T04:16:23.449Z,1
2024-02-14T04:18:07.136Z,1
2024-02-14T04:19:50.831Z,1
2024-02-14T04:21:34.537Z,2
2024-02-14T04:23:18.239Z,1
2024-02-14T04:25:01.952Z,1
2024-02-14T04:26:45.640Z,1
2024-02-14T04:28:29.349Z,1
2024-02-14T04:30:13.064Z,0
2024-02-14T04:31:56.749Z,0
2024-02-14T04:33:40.462Z,1
2024-02-14T04:35:24.148Z,1
2024-02-14T04:37:07.859Z,1
2024-02-14T04:38:51.566Z,0
2024-02-14T04:40:35.260Z,1
2024-02-14T04:42:19.020Z,1
2024-02-14T04:44:02.661Z,1
2024-02-14T04:45:46.367Z,1
2024-02-14T04:47:30.072Z,1
2024-02-14T04:49:13.771Z,1
2024-02-14T04:50:57.477Z,2
2024-02-14T04:52:41.179Z,1
2024-02-14T04:54:24.872Z,1
2024-02-14T04:56:08.579Z,1
2024-02-14T04:57:52.277Z,1
2024-02-14T04:59:36.009Z,2
2024-02-14T05:01:19.690Z,1
2024-02-14T05:03:03.375Z,1
2024-02-14T05:04:47.100Z,1
2024-02-14T05:06:30.801Z,1
2024-02-14T05:08:14.528Z,1
2024-02-14T05:09:58.193Z,0
2024-02-14T05:11:41.909Z,1
2024-02-14T05:13:25.602Z,2
2024-02-14T05:15:09.303Z,1
2024-02-14T05:16:53.026Z,1
2024-02-14T05:18:36.716Z,1
2024-02-14T05:20:20.407Z,1
2024-02-14T05:22:04.101Z,1
2024-02-14T05:23:47.814Z,2
2024-02-14T05:25:31.516Z,1
2024-02-14T05:27:15.215Z,1
2024-02-14T05:28:58.920Z,1
2024-02-14T05:30:42.630Z,1
2024-02-14T05:32:26.382Z,1
2024-02-14T05:34:10.028Z,1
2024-02-14T05:35:53.734Z,1
2024-02-14T05:37:37.431Z,1
2024-02-14T05:39:21.135Z,1
2024-02-14T05:41:04.826Z,1
2024-02-14T05:42:48.538Z,1
2024-02-14T05:44:32.237Z,1
2024-02-14T05:46:15.970Z,1
2024-02-14T05:47:59.639Z,1
2024-02-14T05:49:43.350Z,1
2024-02-14T05:51:27.038Z,1
2024-02-14T05:53:10.741Z,1
2024-02-14T05:54:54.429Z,2
2024-02-14T05:56:38.152Z,3
2024-02-14T05:58:21.937Z,3
2024-02-14T06:00:05.546Z,3
2024-02-14T06:01:49.267Z,3
2024-02-14T06:03:32.955Z,5
2024-02-14T06:05:16.688Z,3
2024-02-14T06:07:00.373Z,3
2024-02-14T06:08:44.092Z,2
2024-02-14T06:10:27.781Z,2
2024-02-14T06:12:11.475Z,3
2024-02-14T06:15:38.882Z,4
2024-02-14T06:17:22.684Z,5
2024-02-14T06:19:06.277Z,5
2024-02-14T06:20:49.988Z,6
2024-02-14T06:22:33.683Z,8
2024-02-14T06:24:17.386Z,9
2024-02-14T06:26:01.102Z,10
2024-02-14T06:27:44.910Z,11
2024-02-14T06:29:28.496Z,14
2024-02-14T06:31:12.225Z,18
2024-02-14T06:32:55.995Z,19
2024-02-14T06:34:39.726Z,20
2024-02-14T06:36:23.299Z,25
2024-02-14T06:38:07.009Z,30
2024-02-14T06:39:50.720Z,35
2024-02-14T06:41:34.415Z,37
2024-02-14T06:43:18.184Z,40
2024-02-14T06:45:01.828Z,42
2024-02-14T06:46:45.542Z,40
2024-02-14T06:48:29.242Z,42
2024-02-14T06:50:12.956Z,46
2024-02-14T06:51:56.626Z,49
2024-02-14T06:53:40.337Z,52
2024-02-14T06:55:24.072Z,55
2024-02-14T06:57:07.746Z,60
2024-02-14T06:58:51.431Z,65
2024-02-14T07:00:35.139Z,68
2024-02-14T07:02:18.844Z,72
2024-02-14T07:04:02.583Z,77
2024-02-14T07:05:46.278Z,83
2024-02-14T07:07:30.009Z,91
2024-02-14T07:09:13.847Z,100
2024-02-14T07:10:57.347Z,107
2024-02-14T07:12:41.113Z,108
2024-02-14T07:14:24.830Z,112
2024-02-14T07:16:08.492Z,118
2024-02-14T07:17:52.157Z,119
2024-02-14T07:19:35.873Z,116
2024-02-14T07:21:19.718Z,113
2024-02-14T07:23:03.301Z,112
2024-02-14T07:24:47.007Z,116
2024-02-14T07:26:30.703Z,119
2024-02-14T07:28:14.436Z,128
2024-02-14T07:29:58.084Z,166
2024-02-14T07:31:41.785Z,156
2024-02-14T07:33:25.476Z,156
2024-02-14T07:35:09.178Z,162
2024-02-14T07:36:52.881Z,169
2024-02-14T07:38:36.592Z,185
2024-02-14T07:40:20.295Z,199
2024-02-14T07:42:03.996Z,215
2024-02-14T07:43:47.696Z,238
2024-02-14T07:45:31.650Z,265
2024-02-14T07:47:15.169Z,281
2024-02-14T07:48:58.816Z,314
2024-02-14T07:50:42.534Z,355
2024-02-14T07:52:26.248Z,405
2024-02-14T07:54:10.204Z,426
2024-02-14T07:55:53.712Z,412
2024-02-14T07:57:37.361Z,383
2024-02-14T07:59:21.075Z,374
2024-02-14T08:01:04.841Z,383
2024-02-14T08:02:48.616Z,364
2024-02-14T08:04:32.234Z,348
2024-02-14T08:06:15.866Z,327
2024-02-14T08:07:59.766Z,305
2024-02-14T08:09:43.252Z,302
2024-02-14T08:11:27.005Z,301
2024-02-14T08:13:10.785Z,330
2024-02-14T08:14:54.366Z,348
2024-02-14T08:16:38.127Z,349
2024-02-14T08:18:21.915Z,346
2024-02-14T08:20:05.504Z,376
2024-02-14T08:21:49.235Z,400
2024-02-14T08:23:32.993Z,425
2024-02-14T08:25:16.599Z,473
2024-02-14T08:27:00.374Z,471
2024-02-14T08:28:43.962Z,457
2024-02-14T08:30:27.704Z,464
2024-02-14T08:33:55.070Z,538
2024-02-14T08:35:38.815Z,585
2024-02-14T08:37:22.478Z,631
2024-02-14T08:39:06.205Z,693
2024-02-14T08:40:49.930Z,720
2024-02-14T08:42:33.682Z,737
2024-02-14T08:44:17.285Z,714
2024-02-14T08:46:01.161Z,684
2024-02-14T08:47:44.683Z,628
2024-02-14T08:49:28.411Z,574
2024-02-14T08:51:12.095Z,541
2024-02-14T08:52:55.954Z,566
2024-02-14T08:54:39.593Z,589
2024-02-14T08:56:23.196Z,599
2024-02-14T08:58:07.232Z,589
2024-02-14T08:59:50.733Z,590
2024-02-14T09:01:34.539Z,613
2024-02-14T09:03:18.014Z,627
2024-02-14T09:05:01.713Z,587
2024-02-14T09:06:45.486Z,568
2024-02-14T09:08:29.426Z,571
2024-02-14T09:10:12.825Z,561
2024-02-14T09:11:56.696Z,541
2024-02-14T09:13:40.360Z,538
2024-02-14T09:15:24.113Z,545
2024-02-14T09:17:07.813Z,529
2024-02-14T09:18:51.639Z,527
2024-02-14T09:20:35.208Z,518
2024-02-14T09:22:18.822Z,538
2024-02-14T09:24:02.448Z,585
2024-02-14T09:25:46.265Z,639
2024-02-14T09:29:13.555Z,686
2024-02-14T09:30:57.348Z,727
2024-02-14T09:32:40.991Z,737
2024-02-14T09:34:24.690Z,731
2024-02-14T09:36:08.574Z,736
2024-02-14T09:37:52.051Z,738
2024-02-14T09:39:35.805Z,738
2024-02-14T09:41:19.531Z,737
2024-02-14T09:43:03.166Z,737
2024-02-14T09:44:46.906Z,737
2024-02-14T09:46:30.577Z,738
2024-02-14T09:48:14.274Z,737
2024-02-14T09:49:58.001Z,736
2024-02-14T09:51:41.867Z,738
2024-02-14T09:53:25.392Z,737
2024-02-14T09:55:09.189Z,738
2024-02-14T09:56:52.773Z,737
2024-02-14T09:58:36.493Z,736
2024-02-14T10:00:20.176Z,738
2024-02-14T10:02:03.954Z,738
2024-02-14T10:03:47.584Z,737
2024-02-14T10:05:31.312Z,737
2024-02-14T10:07:14.980Z,738
2024-02-14T10:08:58.777Z,738
2024-02-14T10:10:42.396Z,738
2024-02-14T10:12:26.140Z,736
2024-02-14T10:14:09.841Z,737
2024-02-14T10:15:53.546Z,738
2024-02-14T10:17:37.203Z,737
2024-02-14T10:19:20.911Z,737
2024-02-14T10:21:04.612Z,737
2024-02-14T10:22:48.295Z,737
2024-02-14T10:24:32.003Z,737
2024-02-14T10:26:15.711Z,738
2024-02-14T10:27:59.412Z,737
2024-02-14T10:29:43.199Z,737
2024-02-14T10:31:26.865Z,737
2024-02-14T10:33:10.516Z,738
2024-02-14T10:34:54.221Z,737
2024-02-14T10:36:37.921Z,736
2024-02-14T10:38:21.625Z,738
2024-02-14T10:40:05.322Z,738
2024-02-14T10:41:49.049Z,738
2024-02-14T10:43:32.726Z,737
2024-02-14T10:45:16.456Z,738
2024-02-14T10:47:00.126Z,738
2024-02-14T10:48:43.834Z,738
2024-02-14T10:50:27.542Z,730
2024-02-14T10:52:11.258Z,737
2024-02-14T10:53:54.953Z,737
2024-02-14T10:55:38.700Z,738
2024-02-14T10:57:22.370Z,738
2024-02-14T10:59:06.085Z,737
2024-02-14T11:00:49.752Z,738
2024-02-14T11:02:33.454Z,737
2024-02-14T11:04:17.198Z,729
2024-02-14T11:06:00.857Z,737
2024-02-14T11:07:44.576Z,737
2024-02-14T11:09:28.441Z,737
2024-02-14T11:11:11.972Z,738
2024-02-14T11:12:55.678Z,737
2024-02-14T11:14:39.368Z,737
2024-02-14T11:16:23.082Z,704
2024-02-14T11:18:06.783Z,681
2024-02-14T11:19:50.580Z,649
2024-02-14T11:21:34.188Z,633
2024-02-14T11:23:17.889Z,627
2024-02-14T11:25:01.600Z,639
2024-02-14T11:26:45.306Z,629
2024-02-14T11:28:29.115Z,689
2024-02-14T11:30:12.699Z,738
2024-02-14T11:31:56.475Z,736
2024-02-14T11:33:40.099Z,738
2024-02-14T11:35:23.815Z,738
2024-02-14T11:37:07.568Z,737
2024-02-14T11:38:51.218Z,738
2024-02-14T11:40:34.913Z,729
2024-02-14T11:44:02.325Z,738
2024-02-14T11:45:46.123Z,738
2024-02-14T11:47:29.765Z,738
2024-02-14T11:49:13.496Z,738
2024-02-14T11:52:40.833Z,737
2024-02-14T11:54:24.583Z,737
2024-02-14T11:56:08.396Z,737
2024-02-14T11:57:52.117Z,737
2024-02-14T11:59:35.645Z,737
2024-02-14T12:01:19.385Z,737
2024-02-14T12:03:03.053Z,737
2024-02-14T12:04:46.843Z,729
2024-02-14T12:06:30.492Z,738
2024-02-14T12:08:14.323Z,737
2024-02-14T12:09:57.923Z,737
2024-02-14T12:11:41.559Z,738
2024-02-14T12:13:25.279Z,738
2024-02-14T12:15:08.975Z,738
2024-02-14T12:16:52.765Z,737
2024-02-14T12:18:36.432Z,728
2024-02-14T12:20:20.160Z,738
2024-02-14T12:22:03.782Z,739
2024-02-14T12:23:47.462Z,737
2024-02-14T12:25:31.200Z,738
2024-02-14T12:27:14.873Z,739
2024-02-14T12:28:58.589Z,738
2024-02-14T12:30:42.296Z,737
2024-02-14T12:32:26.059Z,728
2024-02-14T12:34:09.734Z,738
2024-02-14T12:35:53.400Z,738
2024-02-14T12:37:37.147Z,738
2024-02-14T12:39:20.841Z,737
2024-02-14T12:41:04.530Z,738
2024-02-14T12:42:48.188Z,738
2024-02-14T12:44:31.896Z,737
2024-02-14T12:46:15.604Z,736
2024-02-14T12:47:59.302Z,738
2024-02-14T12:49:43.037Z,738
2024-02-14T12:51:26.757Z,738
2024-02-14T12:53:10.419Z,738
2024-02-14T12:54:54.140Z,738
2024-02-14T12:56:37.952Z,737
2024-02-14T12:58:21.663Z,738
2024-02-14T13:00:05.225Z,738
2024-02-14T13:01:48.926Z,737
2024-02-14T13:03:32.634Z,737
2024-02-14T13:05:16.326Z,737
2024-02-14T13:07:00.026Z,737
2024-02-14T13:08:43.768Z,738
2024-02-14T13:10:27.507Z,737
2024-02-14T13:12:11.198Z,738
2024-02-14T13:13:54.958Z,738
2024-02-14T13:15:38.709Z,738
2024-02-14T13:17:22.359Z,737
2024-02-14T13:19:05.967Z,727
2024-02-14T13:20:49.655Z,738
2024-02-14T13:22:33.358Z,738
2024-02-14T13:24:17.044Z,737
2024-02-14T13:26:00.756Z,738
2024-02-14T13:27:44.572Z,738
2024-02-14T13:29:28.460Z,738
2024-02-14T13:31:12.100Z,738
2024-02-14T13:32:55.577Z,730
2024-02-14T13:34:39.573Z,738
2024-02-14T13:36:23.029Z,738
2024-02-14T13:38:06.678Z,737
2024-02-14T13:39:50.620Z,737
2024-02-14T13:41:34.212Z,737
2024-02-14T13:43:17.885Z,738
2024-02-14T13:45:01.481Z,737
2024-02-14T13:46:45.201Z,737
2024-02-14T13:48:28.932Z,737
2024-02-14T13:50:12.707Z,737
2024-02-14T13:51:56.361Z,737
2024-02-14T13:53:40.064Z,707
2024-02-14T13:55:23.792Z,691
2024-02-14T13:57:07.392Z,644
2024-02-14T13:58:51.138Z,628
2024-02-14T14:00:35.006Z,604
2024-02-14T14:02:18.500Z,574
2024-02-14T14:04:02.205Z,543
2024-02-14T14:05:45.907Z,506
2024-02-14T14:07:29.647Z,450
2024-02-14T14:09:13.325Z,455
2024-02-14T14:10:57.122Z,469
2024-02-14T14:12:40.723Z,479
2024-02-14T14:14:24.458Z,530
2024-02-14T14:16:08.318Z,528
2024-02-14T14:17:51.830Z,571
2024-02-14T14:19:35.714Z,571
2024-02-14T14:21:19.319Z,545
2024-02-14T14:23:03.049Z,581
2024-02-14T14:24:46.720Z,642
2024-02-14T14:26:30.418Z,637
2024-02-14T14:28:14.049Z,652
2024-02-14T14:29:57.739Z,584
2024-02-14T14:31:41.663Z,534
2024-02-14T14:33:25.144Z,527
2024-02-14T14:35:08.852Z,480
2024-02-14T14:36:52.563Z,472
2024-02-14T14:38:36.259Z,462
2024-02-14T14:40:19.969Z,465
2024-02-14T14:42:03.739Z,470
2024-02-14T14:43:47.384Z,450
2024-02-14T14:45:31.092Z,437
2024-02-14T14:48:58.499Z,480
2024-02-14T14:50:42.175Z,524
2024-02-14T14:52:25.884Z,516
2024-02-14T14:54:09.620Z,446
2024-02-14T14:55:53.370Z,423
2024-02-14T14:57:37.159Z,413
2024-02-14T14:59:20.949Z,397
2024-02-14T15:01:04.414Z,378
2024-02-14T15:02:48.171Z,359
2024-02-14T15:04:31.915Z,344
2024-02-14T15:06:15.566Z,345
2024-02-14T15:07:59.203Z,347
2024-02-14T15:09:42.939Z,360
2024-02-14T15:11:26.601Z,375
2024-02-14T15:13:10.310Z,369
2024-02-14T15:14:54.009Z,362
2024-02-14T15:16:37.717Z,369
2024-02-14T15:18:21.430Z,400
2024-02-14T15:20:05.104Z,439
2024-02-14T15:21:48.874Z,547
2024-02-14T15:23:32.772Z,505
2024-02-14T15:25:16.214Z,505
2024-02-14T15:26:59.917Z,444
2024-02-14T15:28:43.680Z,405
2024-02-14T15:30:27.425Z,413
2024-02-14T15:32:11.036Z,427
2024-02-14T15:33:54.958Z,411
2024-02-14T15:35:38.471Z,384
2024-02-14T15:37:22.134Z,354
2024-02-14T15:39:05.974Z,320
2024-02-14T15:40:49.622Z,303
2024-02-14T15:42:33.236Z,289
2024-02-14T15:44:16.982Z,274
2024-02-14T15:46:00.648Z,257
2024-02-14T15:47:44.347Z,231
2024-02-14T15:49:28.065Z,205
2024-02-14T15:51:11.773Z,184
2024-02-14T15:52:55.587Z,166
2024-02-14T15:54:39.219Z,144
2024-02-14T15:56:22.900Z,120
2024-02-14T15:58:06.572Z,99
2024-02-14T15:59:50.284Z,85
2024-02-14T16:01:33.963Z,81
2024-02-14T16:03:17.668Z,76
2024-02-14T16:05:01.411Z,76
2024-02-14T16:06:45.069Z,71
2024-02-14T16:08:28.781Z,63
2024-02-14T16:10:12.481Z,61
2024-02-14T16:11:56.253Z,59
2024-02-14T16:13:39.881Z,56
2024-02-14T16:15:23.579Z,51
2024-02-14T16:17:07.311Z,46
2024-02-14T16:18:50.991Z,41
2024-02-14T16:20:34.732Z,38
2024-02-14T16:22:18.397Z,36
2024-02-14T16:24:02.091Z,34
2024-02-14T16:25:45.798Z,32
2024-02-14T16:27:29.507Z,28
2024-02-14T16:29:13.210Z,23
2024-02-14T16:30:56.913Z,20
2024-02-14T16:32:40.612Z,16
2024-02-14T16:34:24.301Z,15
2024-02-14T16:36:08.018Z,12
2024-02-14T16:37:51.715Z,10
2024-02-14T16:39:35.427Z,7
2024-02-14T16:41:19.136Z,6
2024-02-14T16:43:02.846Z,6
2024-02-14T16:44:46.529Z,5
2024-02-14T16:46:30.231Z,5
2024-02-14T16:48:13.926Z,5
2024-02-14T16:49:57.632Z,4
2024-02-14T16:51:41.340Z,4
2024-02-14T16:53:25.052Z,3
2024-02-14T16:55:08.741Z,4
2024-02-14T16:56:52.443Z,4
2024-02-14T16:58:36.164Z,2
2024-02-14T17:00:19.859Z,3
2024-02-14T17:02:03.536Z,3
2024-02-14T17:03:47.253Z,3
2024-02-14T17:05:31.028Z,3
2024-02-14T17:07:14.768Z,2
2024-02-14T17:08:58.701Z,2
2024-02-14T17:10:42.455Z,2
2024-02-14T17:12:26.133Z,3
2024-02-14T17:14:09.687Z,2
2024-02-14T17:15:53.511Z,2
2024-02-14T17:17:37.169Z,3
2024-02-14T17:21:04.586Z,2
2024-02-14T17:22:48.279Z,3
2024-02-14T17:24:31.676Z,2
2024-02-14T17:26:15.401Z,3
2024-02-14T17:27:59.251Z,3
2024-02-14T17:29:43.004Z,2
2024-02-14T17:31:26.488Z,2
2024-02-14T17:33:10.473Z,2
2024-02-14T17:34:53.941Z,2
2024-02-14T17:36:37.689Z,2
2024-02-14T17:38:21.387Z,3
2024-02-14T17:40:05.122Z,2
2024-02-14T17:41:48.707Z,2
2024-02-14T17:43:32.451Z,3
2024-02-14T17:45:16.098Z,2
2024-02-14T17:46:59.839Z,2
2024-02-14T17:48:43.800Z,3
2024-02-14T17:50:27.254Z,3
2024-02-14T17:52:10.910Z,2
2024-02-14T17:53:54.625Z,2
2024-02-14T17:55:38.325Z,2
2024-02-14T17:57:22.088Z,2
2024-02-14T17:59:05.913Z,3
2024-02-14T18:00:49.543Z,3
2024-02-14T18:02:33.203Z,2
2024-02-14T18:04:16.828Z,2
2024-02-14T18:06:00.547Z,2
2024-02-14T18:07:44.244Z,3
2024-02-14T18:09:27.944Z,3
2024-02-14T18:11:11.840Z,2
2024-02-14T18:12:55.351Z,3
2024-02-14T18:14:39.057Z,2
2024-02-14T18:16:22.763Z,2
2024-02-14T18:18:06.459Z,2
2024-02-14T18:19:50.171Z,2
2024-02-14T18:21:33.872Z,2
2024-02-14T18:23:17.559Z,15
2024-02-14T18:25:01.267Z,15
2024-02-14T18:26:44.974Z,14
2024-02-14T18:28:28.681Z,14
2024-02-14T18:30:12.459Z,14
2024-02-14T18:31:56.088Z,14
2024-02-14T18:33:39.783Z,14
2024-02-14T18:35:23.523Z,14
2024-02-14T18:37:07.177Z,14
2024-02-14T18:38:50.989Z,14
2024-02-14T18:40:34.596Z,14
2024-02-14T18:42:18.281Z,14
2024-02-14T18:44:01.996Z,14
2024-02-14T18:45:45.696Z,14
2024-02-14T18:47:29.418Z,14
2024-02-14T18:49:13.093Z,15
2024-02-14T18:50:56.807Z,14
2024-02-14T18:52:40.512Z,15
2024-02-14T18:54:24.204Z,14
2024-02-14T18:56:07.917Z,14
2024-02-14T18:57:51.613Z,13
2024-02-14T18:59:35.314Z,15
2024-02-14T19:01:19.005Z,14
2024-02-14T19:03:02.721Z,13
2024-02-14T19:04:46.426Z,14
2024-02-14T19:06:30.125Z,15
2024-02-14T19:11:41.231Z,2
2024-02-14T19:13:24.936Z,2
2024-02-14T19:15:08.727Z,2
2024-02-14T19:16:52.341Z,2
2024-02-14T19:18:36.037Z,3
2024-02-14T19:20:19.742Z,2
2024-02-14T19:22:03.446Z,2
2024-02-14T19:23:47.151Z,2
2024-02-14T19:25:30.881Z,2
2024-02-14T19:27:14.597Z,2
2024-02-14T19:28:58.261Z,2
2024-02-14T19:30:41.953Z,2
2024-02-14T19:32:25.772Z,2
2024-02-14T19:34:09.369Z,3
2024-02-14T19:35:53.056Z,2
2024-02-14T19:37:36.768Z,2
2024-02-14T19:39:20.470Z,2
2024-02-14T19:41:04.180Z,2
2024-02-14T19:42:47.880Z,2
2024-02-14T19:44:31.577Z,2
2024-02-14T19:46:15.511Z,2
2024-02-14T19:47:59.049Z,3
2024-02-14T19:49:43.015Z,3
2024-02-14T19:51:26.652Z,3
2024-02-14T19:53:10.396Z,2
2024-02-14T19:54:54.097Z,2
2024-02-14T19:56:37.775Z,3
2024-02-14T19:58:21.362Z,3
2024-02-14T20:00:05.195Z,2
2024-02-14T20:01:48.956Z,2
2024-02-14T20:03:32.579Z,2
2024-02-14T20:05:16.354Z,2
2024-02-14T20:06:59.715Z,1
2024-02-14T20:08:43.698Z,2
2024-02-14T20:10:27.310Z,2
2024-02-14T20:12:11.098Z,2
2024-02-14T20:13:54.844Z,2
2024-02-14T20:15:38.443Z,2
2024-02-14T20:17:22.242Z,2
2024-02-14T20:19:05.641Z,2
2024-02-14T20:20:49.763Z,2
2024-02-14T20:22:33.357Z,3
2024-02-14T20:24:16.844Z,2
2024-02-14T20:26:00.793Z,2
2024-02-14T20:27:44.450Z,2
2024-02-14T20:29:28.171Z,2
2024-02-14T20:31:11.886Z,3
2024-02-14T20:32:55.552Z,3
2024-02-14T20:34:39.259Z,3
2024-02-14T20:36:22.882Z,2
2024-02-14T20:38:06.680Z,2
2024-02-14T20:39:50.329Z,2
2024-02-14T20:41:34.125Z,3
2024-02-14T20:43:17.779Z,2
2024-02-14T20:45:01.488Z,2
2024-02-14T20:46:45.179Z,2
2024-02-14T20:48:28.789Z,2
2024-02-14T20:50:12.616Z,2
2024-02-14T20:51:56.261Z,4
2024-02-14T20:53:39.686Z,2
2024-02-14T20:55:23.613Z,2
2024-02-14T20:57:07.210Z,2
2024-02-14T20:58:51.053Z,2
2024-02-14T21:00:34.881Z,2
2024-02-14T21:02:18.541Z,3
2024-02-14T21:04:02.076Z,3
2024-02-14T21:05:45.600Z,2
2024-02-14T21:07:29.413Z,2
2024-02-14T21:09:13.179Z,2
2024-02-14T21:10:57.007Z,3
2024-02-14T21:12:40.760Z,3
2024-02-14T21:14:24.339Z,2
2024-02-14T21:16:08.197Z,4
2024-02-14T21:17:51.591Z,5
2024-02-14T21:19:35.229Z,4
2024-02-14T21:21:19.289Z,3
2024-02-14T21:23:02.996Z,2
2024-02-14T21:24:46.509Z,2
2024-02-14T21:26:30.354Z,2
2024-02-14T21:28:14.005Z,2
2024-02-14T21:29:57.436Z,2
2024-02-14T21:31:41.443Z,2
2024-02-14T21:33:25.076Z,2
2024-02-14T21:35:08.958Z,2
2024-02-14T21:36:52.618Z,2
2024-02-14T21:38:36.373Z,2
2024-02-14T21:40:20.019Z,2
2024-02-14T21:42:03.677Z,2
2024-02-14T21:43:47.363Z,2
2024-02-14T21:45:30.905Z,2
2024-02-14T21:47:14.461Z,2
2024-02-14T21:48:58.158Z,1
2024-02-14T21:50:41.857Z,2
2024-02-14T21:52:25.651Z,2
2024-02-14T21:54:09.634Z,2
2024-02-14T21:55:52.970Z,1
2024-02-14T21:57:36.661Z,1
2024-02-14T21:59:20.371Z,2
2024-02-14T22:01:04.075Z,2
2024-02-14T22:02:47.763Z,3
2024-02-14T22:04:31.473Z,2
2024-02-14T22:06:15.220Z,2
2024-02-14T22:07:58.879Z,1
2024-02-14T22:11:26.309Z,2
2024-02-14T22:13:09.992Z,2
2024-02-14T22:14:53.696Z,2
2024-02-14T22:16:37.386Z,2
2024-02-14T22:18:21.096Z,1
2024-02-14T22:20:04.789Z,2
2024-02-14T22:23:32.226Z,2
2024-02-14T22:25:15.897Z,2
2024-02-14T22:26:59.652Z,2
2024-02-14T22:28:43.494Z,2
2024-02-14T22:30:27.148Z,3
2024-02-14T22:32:10.774Z,2
2024-02-14T22:33:54.613Z,2
2024-02-14T22:35:38.237Z,2
2024-02-14T22:37:22.011Z,1
2024-02-14T22:39:05.681Z,2
2024-02-14T22:40:49.221Z,2
2024-02-14T22:42:32.918Z,2
2024-02-14T22:44:16.667Z,2
2024-02-14T22:46:00.379Z,2
2024-02-14T22:47:44.023Z,2
2024-02-14T22:49:27.810Z,2
2024-02-14T22:51:11.433Z,3
2024-02-14T22:52:55.208Z,3
2024-02-14T22:54:38.837Z,3
2024-02-14T22:56:22.610Z,3
2024-02-14T22:58:06.256Z,2
2024-02-14T22:59:50.064Z,2
2024-02-14T23:01:33.680Z,3
2024-02-14T23:03:17.578Z,3
2024-02-14T23:05:01.073Z,3
2024-02-14T23:06:44.835Z,1
2024-02-14T23:08:28.561Z,2
2024-02-14T23:10:12.244Z,2
2024-02-14T23:11:55.941Z,2
2024-02-14T23:13:39.570Z,2
2024-02-14T23:15:23.378Z,2
2024-02-14T23:17:07.158Z,3
2024-02-14T23:18:50.770Z,2
2024-02-14T23:20:34.548Z,1
2024-02-14T23:22:18.155Z,2
2024-02-14T23:24:01.819Z,2
2024-02-14T23:25:45.556Z,1
2024-02-14T23:27:29.348Z,2
2024-02-14T23:29:12.984Z,2
2024-02-14T23:30:56.680Z,2
2024-02-14T23:32:40.369Z,3
2024-02-14T23:34:24.132Z,2
2024-02-14T23:36:07.722Z,2
2024-02-14T23:37:51.527Z,2
2024-02-14T23:39:35.137Z,2
2024-02-14T23:41:18.827Z,2
2024-02-14T23:43:02.596Z,2
2024-02-14T23:44:46.320Z,2
2024-02-14T23:46:30.102Z,2
2024-02-14T23:48:13.747Z,2
2024-02-14T23:49:57.439Z,2
2024-02-14T23:51:41.169Z,2
2024-02-14T23:53:25.001Z,3
2024-02-14T23:55:08.480Z,2
2024-02-14T23:56:52.176Z,3
2024-02-14T23:58:35.911Z,2
